sensor_id;sensor_type;location;lat;lon;timestamp;P1;durP1;ratioP1;P2;durP2;ratioP2
19605;SDS011;9950;50.168;8.210;2024-02-23T00:02:04;1.70;;;0.80;;
19605;SDS011;9950;50.168;8.210;2024-02-23T00:04:32;1.52;;;0.77;;
19605;SDS011;9950;50.168;8.210;2024-02-23T00:07:00;2.42;;;0.60;;
19605;SDS011;9950;50.168;8.210;2024-02-23T00:09:28;4.30;;;0.60;;
19605;SDS011;9950;50.168;8.210;2024-02-23T00:11:55;2.65;;;0.70;;
19605;SDS011;9950;50.168;8.210;2024-02-23T00:14:22;2.83;;;0.50;;
19605;SDS011;9950;50.168;8.210;2024-02-23T00:16:50;1.42;;;0.50;;
19605;SDS011;9950;50.168;8.210;2024-02-23T00:19:17;0.98;;;0.57;;
19605;SDS011;9950;50.168;8.210;2024-02-23T00:21:45;2.20;;;0.60;;
19605;SDS011;9950;50.168;8.210;2024-02-23T00:24:17;2.00;;;0.70;;
19605;SDS011;9950;50.168;8.210;2024-02-23T00:26:45;2.60;;;0.70;;
19605;SDS011;9950;50.168;8.210;2024-02-23T00:29:13;0.75;;;0.60;;
19605;SDS011;9950;50.168;8.210;2024-02-23T00:31:40;0.30;;;0.30;;
19605;SDS011;9950;50.168;8.210;2024-02-23T00:34:08;0.63;;;0.50;;
19605;SDS011;9950;50.168;8.210;2024-02-23T00:36:35;1.23;;;0.60;;
19605;SDS011;9950;50.168;8.210;2024-02-23T00:39:03;1.10;;;0.40;;
19605;SDS011;9950;50.168;8.210;2024-02-23T00:41:33;0.68;;;0.35;;
19605;SDS011;9950;50.168;8.210;2024-02-23T00:44:01;0.90;;;0.40;;
19605;SDS011;9950;50.168;8.210;2024-02-23T00:46:28;0.73;;;0.47;;
19605;SDS011;9950;50.168;8.210;2024-02-23T00:48:55;0.75;;;0.40;;
19605;SDS011;9950;50.168;8.210;2024-02-23T00:51:23;2.08;;;0.50;;
19605;SDS011;9950;50.168;8.210;2024-02-23T00:53:50;0.90;;;0.40;;
19605;SDS011;9950;50.168;8.210;2024-02-23T00:56:17;0.80;;;0.40;;
19605;SDS011;9950;50.168;8.210;2024-02-23T00:58:46;0.47;;;0.40;;
19605;SDS011;9950;50.168;8.210;2024-02-23T01:01:13;0.95;;;0.40;;
19605;SDS011;9950;50.168;8.210;2024-02-23T01:03:41;0.40;;;0.40;;
19605;SDS011;9950;50.168;8.210;2024-02-23T01:06:08;0.93;;;0.57;;
19605;SDS011;9950;50.168;8.210;2024-02-23T01:08:36;2.40;;;0.60;;
19605;SDS011;9950;50.168;8.210;2024-02-23T01:11:05;1.00;;;0.50;;
19605;SDS011;9950;50.168;8.210;2024-02-23T01:13:32;5.60;;;0.98;;
19605;SDS011;9950;50.168;8.210;2024-02-23T01:16:01;0.60;;;0.30;;
19605;SDS011;9950;50.168;8.210;2024-02-23T01:18:28;2.28;;;0.60;;
19605;SDS011;9950;50.168;8.210;2024-02-23T01:20:56;0.60;;;0.57;;
19605;SDS011;9950;50.168;8.210;2024-02-23T01:23:23;3.28;;;0.50;;
19605;SDS011;9950;50.168;8.210;2024-02-23T01:25:50;1.60;;;0.60;;
19605;SDS011;9950;50.168;8.210;2024-02-23T01:28:18;0.30;;;0.30;;
19605;SDS011;9950;50.168;8.210;2024-02-23T01:30:45;3.22;;;0.50;;
19605;SDS011;9950;50.168;8.210;2024-02-23T01:33:14;0.80;;;0.50;;
19605;SDS011;9950;50.168;8.210;2024-02-23T01:35:41;2.90;;;0.45;;
19605;SDS011;9950;50.168;8.210;2024-02-23T01:38:09;1.77;;;0.40;;
19605;SDS011;9950;50.168;8.210;2024-02-23T01:40:36;1.40;;;0.47;;
19605;SDS011;9950;50.168;8.210;2024-02-23T01:43:04;4.32;;;0.57;;
19605;SDS011;9950;50.168;8.210;2024-02-23T01:45:31;5.97;;;0.77;;
19605;SDS011;9950;50.168;8.210;2024-02-23T01:47:59;1.10;;;0.40;;
19605;SDS011;9950;50.168;8.210;2024-02-23T01:50:29;0.80;;;0.50;;
19605;SDS011;9950;50.168;8.210;2024-02-23T01:52:57;2.20;;;0.70;;
19605;SDS011;9950;50.168;8.210;2024-02-23T01:55:26;2.88;;;0.57;;
19605;SDS011;9950;50.168;8.210;2024-02-23T01:57:53;5.93;;;1.65;;
19605;SDS011;9950;50.168;8.210;2024-02-23T02:00:21;5.15;;;0.57;;
19605;SDS011;9950;50.168;8.210;2024-02-23T02:02:49;1.98;;;0.50;;
19605;SDS011;9950;50.168;8.210;2024-02-23T02:05:17;0.75;;;0.65;;
19605;SDS011;9950;50.168;8.210;2024-02-23T02:07:45;3.05;;;0.68;;
19605;SDS011;9950;50.168;8.210;2024-02-23T02:10:14;2.13;;;0.47;;
19605;SDS011;9950;50.168;8.210;2024-02-23T02:12:41;1.50;;;0.80;;
19605;SDS011;9950;50.168;8.210;2024-02-23T02:15:08;2.72;;;0.50;;
19605;SDS011;9950;50.168;8.210;2024-02-23T02:17:35;0.80;;;0.40;;
19605;SDS011;9950;50.168;8.210;2024-02-23T02:20:03;1.98;;;0.50;;
19605;SDS011;9950;50.168;8.210;2024-02-23T02:22:31;3.53;;;0.85;;
19605;SDS011;9950;50.168;8.210;2024-02-23T02:25:00;2.90;;;0.60;;
19605;SDS011;9950;50.168;8.210;2024-02-23T02:27:28;2.20;;;0.63;;
19605;SDS011;9950;50.168;8.210;2024-02-23T02:29:55;2.90;;;0.55;;
19605;SDS011;9950;50.168;8.210;2024-02-23T02:32:22;3.08;;;0.60;;
19605;SDS011;9950;50.168;8.210;2024-02-23T02:34:50;2.50;;;0.77;;
19605;SDS011;9950;50.168;8.210;2024-02-23T02:37:17;1.20;;;0.50;;
19605;SDS011;9950;50.168;8.210;2024-02-23T02:39:44;3.92;;;0.60;;
19605;SDS011;9950;50.168;8.210;2024-02-23T02:42:13;1.42;;;0.60;;
19605;SDS011;9950;50.168;8.210;2024-02-23T02:44:41;3.47;;;0.70;;
19605;SDS011;9950;50.168;8.210;2024-02-23T02:47:08;0.65;;;0.50;;
19605;SDS011;9950;50.168;8.210;2024-02-23T02:49:36;3.17;;;0.60;;
19605;SDS011;9950;50.168;8.210;2024-02-23T02:52:03;3.15;;;0.55;;
19605;SDS011;9950;50.168;8.210;2024-02-23T02:54:30;4.47;;;0.75;;
19605;SDS011;9950;50.168;8.210;2024-02-23T02:56:57;3.08;;;0.55;;
19605;SDS011;9950;50.168;8.210;2024-02-23T02:59:26;3.95;;;0.90;;
19605;SDS011;9950;50.168;8.210;2024-02-23T03:01:53;1.27;;;0.70;;
19605;SDS011;9950;50.168;8.210;2024-02-23T03:04:22;2.67;;;0.68;;
19605;SDS011;9950;50.168;8.210;2024-02-23T03:06:49;2.67;;;0.70;;
19605;SDS011;9950;50.168;8.210;2024-02-23T03:09:17;1.35;;;0.60;;
19605;SDS011;9950;50.168;8.210;2024-02-23T03:11:44;4.90;;;0.80;;
19605;SDS011;9950;50.168;8.210;2024-02-23T03:14:11;2.55;;;0.73;;
19605;SDS011;9950;50.168;8.210;2024-02-23T03:16:40;2.60;;;0.65;;
19605;SDS011;9950;50.168;8.210;2024-02-23T03:19:07;4.10;;;0.88;;
19605;SDS011;9950;50.168;8.210;2024-02-23T03:21:35;1.20;;;0.60;;
19605;SDS011;9950;50.168;8.210;2024-02-23T03:24:02;2.10;;;0.90;;
19605;SDS011;9950;50.168;8.210;2024-02-23T03:26:29;2.90;;;0.70;;
19605;SDS011;9950;50.168;8.210;2024-02-23T03:28:56;2.97;;;0.80;;
19605;SDS011;9950;50.168;8.210;2024-02-23T03:31:24;2.72;;;0.90;;
19605;SDS011;9950;50.168;8.210;2024-02-23T03:33:52;2.72;;;0.85;;
19605;SDS011;9950;50.168;8.210;2024-02-23T03:36:20;2.80;;;0.85;;
19605;SDS011;9950;50.168;8.210;2024-02-23T03:38:47;2.67;;;0.70;;
19605;SDS011;9950;50.168;8.210;2024-02-23T03:41:14;4.80;;;0.68;;
19605;SDS011;9950;50.168;8.210;2024-02-23T03:43:41;2.78;;;0.73;;
19605;SDS011;9950;50.168;8.210;2024-02-23T03:46:09;3.20;;;1.02;;
19605;SDS011;9950;50.168;8.210;2024-02-23T03:48:37;3.47;;;0.80;;
19605;SDS011;9950;50.168;8.210;2024-02-23T03:51:05;3.85;;;0.85;;
19605;SDS011;9950;50.168;8.210;2024-02-23T03:53:33;4.30;;;0.70;;
19605;SDS011;9950;50.168;8.210;2024-02-23T03:56:00;1.50;;;0.68;;
19605;SDS011;9950;50.168;8.210;2024-02-23T03:58:28;4.22;;;0.80;;
19605;SDS011;9950;50.168;8.210;2024-02-23T04:00:55;1.33;;;0.75;;
19605;SDS011;9950;50.168;8.210;2024-02-23T04:03:22;2.05;;;0.95;;
19605;SDS011;9950;50.168;8.210;2024-02-23T04:05:49;3.13;;;0.77;;
19605;SDS011;9950;50.168;8.210;2024-02-23T04:08:18;4.18;;;1.52;;
19605;SDS011;9950;50.168;8.210;2024-02-23T04:10:45;1.92;;;0.60;;
19605;SDS011;9950;50.168;8.210;2024-02-23T04:13:13;2.50;;;0.75;;
19605;SDS011;9950;50.168;8.210;2024-02-23T04:15:40;4.45;;;0.80;;
19605;SDS011;9950;50.168;8.210;2024-02-23T04:18:07;2.88;;;0.90;;
19605;SDS011;9950;50.168;8.210;2024-02-23T04:20:35;5.28;;;0.95;;
19605;SDS011;9950;50.168;8.210;2024-02-23T04:23:02;5.68;;;1.23;;
19605;SDS011;9950;50.168;8.210;2024-02-23T04:25:31;11.23;;;1.10;;
19605;SDS011;9950;50.168;8.210;2024-02-23T04:27:58;3.00;;;0.80;;
19605;SDS011;9950;50.168;8.210;2024-02-23T04:30:25;4.40;;;1.00;;
19605;SDS011;9950;50.168;8.210;2024-02-23T04:32:53;4.05;;;1.00;;
19605;SDS011;9950;50.168;8.210;2024-02-23T04:35:20;3.25;;;1.27;;
19605;SDS011;9950;50.168;8.210;2024-02-23T04:37:47;3.35;;;0.60;;
19605;SDS011;9950;50.168;8.210;2024-02-23T04:40:15;1.58;;;0.60;;
19605;SDS011;9950;50.168;8.210;2024-02-23T04:42:44;6.57;;;1.08;;
19605;SDS011;9950;50.168;8.210;2024-02-23T04:45:12;3.88;;;0.80;;
19605;SDS011;9950;50.168;8.210;2024-02-23T04:47:39;2.90;;;0.70;;
19605;SDS011;9950;50.168;8.210;2024-02-23T04:50:07;6.57;;;0.80;;
19605;SDS011;9950;50.168;8.210;2024-02-23T04:52:35;4.32;;;1.02;;
19605;SDS011;9950;50.168;8.210;2024-02-23T04:55:02;6.38;;;0.85;;
19605;SDS011;9950;50.168;8.210;2024-02-23T04:57:30;2.97;;;0.98;;
19605;SDS011;9950;50.168;8.210;2024-02-23T05:00:02;2.85;;;0.80;;
19605;SDS011;9950;50.168;8.210;2024-02-23T05:02:29;3.00;;;0.63;;
19605;SDS011;9950;50.168;8.210;2024-02-23T05:05:00;2.40;;;0.70;;
19605;SDS011;9950;50.168;8.210;2024-02-23T05:07:29;2.97;;;0.70;;
19605;SDS011;9950;50.168;8.210;2024-02-23T05:09:57;4.43;;;1.00;;
19605;SDS011;9950;50.168;8.210;2024-02-23T05:12:24;2.92;;;0.73;;
19605;SDS011;9950;50.168;8.210;2024-02-23T05:14:51;3.25;;;0.70;;
19605;SDS011;9950;50.168;8.210;2024-02-23T05:17:20;4.95;;;0.80;;
19605;SDS011;9950;50.168;8.210;2024-02-23T05:19:48;2.70;;;0.90;;
19605;SDS011;9950;50.168;8.210;2024-02-23T05:22:15;3.20;;;0.90;;
19605;SDS011;9950;50.168;8.210;2024-02-23T05:24:43;8.35;;;0.75;;
19605;SDS011;9950;50.168;8.210;2024-02-23T05:27:10;5.95;;;1.35;;
19605;SDS011;9950;50.168;8.210;2024-02-23T05:29:38;3.72;;;0.80;;
19605;SDS011;9950;50.168;8.210;2024-02-23T05:32:06;2.63;;;0.80;;
19605;SDS011;9950;50.168;8.210;2024-02-23T05:34:34;3.38;;;0.90;;
19605;SDS011;9950;50.168;8.210;2024-02-23T05:37:02;1.60;;;0.70;;
19605;SDS011;9950;50.168;8.210;2024-02-23T05:39:29;2.70;;;0.75;;
19605;SDS011;9950;50.168;8.210;2024-02-23T05:41:56;2.75;;;0.85;;
19605;SDS011;9950;50.168;8.210;2024-02-23T05:44:24;2.75;;;0.73;;
19605;SDS011;9950;50.168;8.210;2024-02-23T05:46:53;4.38;;;1.27;;
19605;SDS011;9950;50.168;8.210;2024-02-23T05:49:20;1.92;;;0.70;;
19605;SDS011;9950;50.168;8.210;2024-02-23T05:51:49;2.72;;;1.00;;
19605;SDS011;9950;50.168;8.210;2024-02-23T05:54:17;5.10;;;1.17;;
19605;SDS011;9950;50.168;8.210;2024-02-23T05:56:44;5.32;;;1.02;;
19605;SDS011;9950;50.168;8.210;2024-02-23T05:59:12;3.33;;;0.80;;
19605;SDS011;9950;50.168;8.210;2024-02-23T06:01:39;2.60;;;0.80;;
19605;SDS011;9950;50.168;8.210;2024-02-23T06:04:06;1.63;;;0.73;;
19605;SDS011;9950;50.168;8.210;2024-02-23T06:06:34;8.32;;;1.10;;
19605;SDS011;9950;50.168;8.210;2024-02-23T06:09:02;1.88;;;0.77;;
19605;SDS011;9950;50.168;8.210;2024-02-23T06:11:30;1.40;;;0.65;;
19605;SDS011;9950;50.168;8.210;2024-02-23T06:13:58;2.47;;;0.77;;
19605;SDS011;9950;50.168;8.210;2024-02-23T06:16:25;4.40;;;0.80;;
19605;SDS011;9950;50.168;8.210;2024-02-23T06:18:52;1.30;;;0.85;;
19605;SDS011;9950;50.168;8.210;2024-02-23T06:21:19;5.85;;;1.02;;
19605;SDS011;9950;50.168;8.210;2024-02-23T06:23:47;2.08;;;0.80;;
19605;SDS011;9950;50.168;8.210;2024-02-23T06:26:15;3.28;;;0.88;;
19605;SDS011;9950;50.168;8.210;2024-02-23T06:28:43;3.92;;;0.98;;
19605;SDS011;9950;50.168;8.210;2024-02-23T06:31:10;2.90;;;0.70;;
19605;SDS011;9950;50.168;8.210;2024-02-23T06:33:37;6.28;;;1.33;;
19605;SDS011;9950;50.168;8.210;2024-02-23T06:36:06;4.50;;;1.20;;
19605;SDS011;9950;50.168;8.210;2024-02-23T06:38:33;3.47;;;1.10;;
19605;SDS011;9950;50.168;8.210;2024-02-23T06:41:00;3.08;;;1.00;;
19605;SDS011;9950;50.168;8.210;2024-02-23T06:43:29;4.07;;;0.80;;
19605;SDS011;9950;50.168;8.210;2024-02-23T06:45:56;4.00;;;1.05;;
19605;SDS011;9950;50.168;8.210;2024-02-23T06:48:23;3.15;;;1.05;;
19605;SDS011;9950;50.168;8.210;2024-02-23T06:50:51;2.83;;;1.30;;
19605;SDS011;9950;50.168;8.210;2024-02-23T06:53:18;9.70;;;1.73;;
19605;SDS011;9950;50.168;8.210;2024-02-23T06:55:45;5.13;;;1.30;;
19605;SDS011;9950;50.168;8.210;2024-02-23T06:58:13;2.40;;;1.05;;
19605;SDS011;9950;50.168;8.210;2024-02-23T07:00:43;3.70;;;1.40;;
19605;SDS011;9950;50.168;8.210;2024-02-23T07:03:10;4.57;;;1.40;;
19605;SDS011;9950;50.168;8.210;2024-02-23T07:05:37;7.75;;;1.48;;
19605;SDS011;9950;50.168;8.210;2024-02-23T07:08:05;6.78;;;1.65;;
19605;SDS011;9950;50.168;8.210;2024-02-23T07:10:32;3.95;;;1.60;;
19605;SDS011;9950;50.168;8.210;2024-02-23T07:13:00;4.50;;;1.88;;
19605;SDS011;9950;50.168;8.210;2024-02-23T07:15:27;4.57;;;1.65;;
19605;SDS011;9950;50.168;8.210;2024-02-23T07:17:56;5.03;;;1.83;;
19605;SDS011;9950;50.168;8.210;2024-02-23T07:20:23;3.55;;;1.80;;
19605;SDS011;9950;50.168;8.210;2024-02-23T07:22:50;3.97;;;1.95;;
19605;SDS011;9950;50.168;8.210;2024-02-23T07:25:18;6.65;;;2.45;;
19605;SDS011;9950;50.168;8.210;2024-02-23T07:27:46;5.55;;;2.10;;
19605;SDS011;9950;50.168;8.210;2024-02-23T07:30:14;9.77;;;2.28;;
19605;SDS011;9950;50.168;8.210;2024-02-23T07:32:42;6.13;;;2.00;;
19605;SDS011;9950;50.168;8.210;2024-02-23T07:35:11;3.80;;;2.05;;
19605;SDS011;9950;50.168;8.210;2024-02-23T07:37:38;6.10;;;1.90;;
19605;SDS011;9950;50.168;8.210;2024-02-23T07:40:06;5.18;;;1.60;;
19605;SDS011;9950;50.168;8.210;2024-02-23T07:42:33;5.32;;;1.90;;
19605;SDS011;9950;50.168;8.210;2024-02-23T07:45:02;5.50;;;1.90;;
19605;SDS011;9950;50.168;8.210;2024-02-23T07:47:30;5.10;;;1.52;;
19605;SDS011;9950;50.168;8.210;2024-02-23T07:49:57;5.40;;;1.35;;
19605;SDS011;9950;50.168;8.210;2024-02-23T07:52:26;5.03;;;1.35;;
19605;SDS011;9950;50.168;8.210;2024-02-23T07:54:53;5.22;;;1.60;;
19605;SDS011;9950;50.168;8.210;2024-02-23T07:57:20;8.05;;;2.22;;
19605;SDS011;9950;50.168;8.210;2024-02-23T07:59:48;8.70;;;1.67;;
19605;SDS011;9950;50.168;8.210;2024-02-23T08:02:15;4.43;;;1.60;;
19605;SDS011;9950;50.168;8.210;2024-02-23T08:04:43;4.65;;;1.52;;
19605;SDS011;9950;50.168;8.210;2024-02-23T08:07:12;4.47;;;1.55;;
19605;SDS011;9950;50.168;8.210;2024-02-23T08:09:41;9.35;;;1.63;;
19605;SDS011;9950;50.168;8.210;2024-02-23T08:12:08;6.32;;;1.55;;
19605;SDS011;9950;50.168;8.210;2024-02-23T08:14:36;3.10;;;1.23;;
19605;SDS011;9950;50.168;8.210;2024-02-23T08:17:03;5.32;;;1.65;;
19605;SDS011;9950;50.168;8.210;2024-02-23T08:19:31;6.82;;;1.40;;
19605;SDS011;9950;50.168;8.210;2024-02-23T08:21:58;4.22;;;1.60;;
19605;SDS011;9950;50.168;8.210;2024-02-23T08:24:25;5.18;;;1.45;;
19605;SDS011;9950;50.168;8.210;2024-02-23T08:26:54;4.60;;;1.83;;
19605;SDS011;9950;50.168;8.210;2024-02-23T08:29:21;7.32;;;1.23;;
19605;SDS011;9950;50.168;8.210;2024-02-23T08:31:48;5.43;;;1.48;;
19605;SDS011;9950;50.168;8.210;2024-02-23T08:34:16;3.58;;;1.27;;
19605;SDS011;9950;50.168;8.210;2024-02-23T08:36:43;5.80;;;1.48;;
19605;SDS011;9950;50.168;8.210;2024-02-23T08:39:11;7.40;;;1.52;;
19605;SDS011;9950;50.168;8.210;2024-02-23T08:41:38;6.18;;;1.50;;
19605;SDS011;9950;50.168;8.210;2024-02-23T08:44:07;10.88;;;1.75;;
19605;SDS011;9950;50.168;8.210;2024-02-23T08:46:34;3.92;;;1.20;;
19605;SDS011;9950;50.168;8.210;2024-02-23T08:49:04;11.45;;;1.90;;
19605;SDS011;9950;50.168;8.210;2024-02-23T08:51:31;5.15;;;1.48;;
19605;SDS011;9950;50.168;8.210;2024-02-23T08:53:59;5.53;;;1.35;;
19605;SDS011;9950;50.168;8.210;2024-02-23T08:56:29;5.38;;;1.25;;
19605;SDS011;9950;50.168;8.210;2024-02-23T08:58:56;6.32;;;1.38;;
19605;SDS011;9950;50.168;8.210;2024-02-23T09:01:25;6.43;;;1.75;;
19605;SDS011;9950;50.168;8.210;2024-02-23T09:03:52;3.67;;;1.30;;
19605;SDS011;9950;50.168;8.210;2024-02-23T09:06:19;6.63;;;1.63;;
19605;SDS011;9950;50.168;8.210;2024-02-23T09:08:47;6.35;;;1.48;;
19605;SDS011;9950;50.168;8.210;2024-02-23T09:11:14;7.72;;;1.80;;
19605;SDS011;9950;50.168;8.210;2024-02-23T09:13:41;4.85;;;1.25;;
19605;SDS011;9950;50.168;8.210;2024-02-23T09:16:09;5.30;;;1.27;;
19605;SDS011;9950;50.168;8.210;2024-02-23T09:18:37;4.97;;;1.38;;
19605;SDS011;9950;50.168;8.210;2024-02-23T09:21:05;7.45;;;2.33;;
19605;SDS011;9950;50.168;8.210;2024-02-23T09:23:32;7.13;;;1.40;;
19605;SDS011;9950;50.168;8.210;2024-02-23T09:25:59;4.85;;;1.52;;
19605;SDS011;9950;50.168;8.210;2024-02-23T09:28:27;5.15;;;1.33;;
19605;SDS011;9950;50.168;8.210;2024-02-23T09:30:54;5.22;;;1.42;;
19605;SDS011;9950;50.168;8.210;2024-02-23T09:33:21;5.68;;;1.40;;
19605;SDS011;9950;50.168;8.210;2024-02-23T09:35:50;9.77;;;1.40;;
19605;SDS011;9950;50.168;8.210;2024-02-23T09:38:17;7.57;;;1.50;;
19605;SDS011;9950;50.168;8.210;2024-02-23T09:40:45;7.35;;;1.63;;
19605;SDS011;9950;50.168;8.210;2024-02-23T09:43:13;9.43;;;1.80;;
19605;SDS011;9950;50.168;8.210;2024-02-23T09:45:41;4.97;;;1.50;;
19605;SDS011;9950;50.168;8.210;2024-02-23T09:48:08;5.28;;;1.83;;
19605;SDS011;9950;50.168;8.210;2024-02-23T09:50:37;8.50;;;2.05;;
19605;SDS011;9950;50.168;8.210;2024-02-23T09:53:06;5.50;;;1.83;;
19605;SDS011;9950;50.168;8.210;2024-02-23T09:55:35;8.10;;;1.77;;
19605;SDS011;9950;50.168;8.210;2024-02-23T09:58:06;11.13;;;1.88;;
19605;SDS011;9950;50.168;8.210;2024-02-23T10:00:34;5.38;;;1.30;;
19605;SDS011;9950;50.168;8.210;2024-02-23T10:03:04;4.75;;;1.40;;
19605;SDS011;9950;50.168;8.210;2024-02-23T10:05:31;6.60;;;1.40;;
19605;SDS011;9950;50.168;8.210;2024-02-23T10:07:58;9.80;;;1.70;;
19605;SDS011;9950;50.168;8.210;2024-02-23T10:10:30;7.95;;;1.45;;
19605;SDS011;9950;50.168;8.210;2024-02-23T10:12:59;6.55;;;1.50;;
19605;SDS011;9950;50.168;8.210;2024-02-23T10:15:28;4.07;;;1.50;;
19605;SDS011;9950;50.168;8.210;2024-02-23T10:17:56;6.55;;;1.77;;
19605;SDS011;9950;50.168;8.210;2024-02-23T10:20:23;7.47;;;1.83;;
19605;SDS011;9950;50.168;8.210;2024-02-23T10:22:51;6.50;;;1.42;;
19605;SDS011;9950;50.168;8.210;2024-02-23T10:25:19;5.55;;;1.33;;
19605;SDS011;9950;50.168;8.210;2024-02-23T10:27:47;4.63;;;1.50;;
19605;SDS011;9950;50.168;8.210;2024-02-23T10:30:15;4.38;;;1.20;;
19605;SDS011;9950;50.168;8.210;2024-02-23T10:32:42;9.35;;;1.10;;
19605;SDS011;9950;50.168;8.210;2024-02-23T10:35:10;8.73;;;1.25;;
19605;SDS011;9950;50.168;8.210;2024-02-23T10:37:37;6.97;;;1.35;;
19605;SDS011;9950;50.168;8.210;2024-02-23T10:40:05;5.60;;;1.25;;
19605;SDS011;9950;50.168;8.210;2024-02-23T10:42:34;5.40;;;1.35;;
19605;SDS011;9950;50.168;8.210;2024-02-23T10:45:05;3.20;;;1.10;;
19605;SDS011;9950;50.168;8.210;2024-02-23T10:47:33;8.43;;;1.15;;
19605;SDS011;9950;50.168;8.210;2024-02-23T10:50:01;7.05;;;1.10;;
19605;SDS011;9950;50.168;8.210;2024-02-23T10:52:30;6.80;;;1.25;;
19605;SDS011;9950;50.168;8.210;2024-02-23T10:54:57;5.05;;;0.98;;
19605;SDS011;9950;50.168;8.210;2024-02-23T10:57:29;5.30;;;1.52;;
19605;SDS011;9950;50.168;8.210;2024-02-23T10:59:57;4.82;;;1.17;;
19605;SDS011;9950;50.168;8.210;2024-02-23T11:02:27;5.63;;;0.90;;
19605;SDS011;9950;50.168;8.210;2024-02-23T11:04:55;7.57;;;1.10;;
19605;SDS011;9950;50.168;8.210;2024-02-23T11:07:24;3.03;;;0.90;;
19605;SDS011;9950;50.168;8.210;2024-02-23T11:09:53;3.80;;;1.10;;
19605;SDS011;9950;50.168;8.210;2024-02-23T11:12:23;4.95;;;1.05;;
19605;SDS011;9950;50.168;8.210;2024-02-23T11:14:51;4.63;;;1.15;;
19605;SDS011;9950;50.168;8.210;2024-02-23T11:17:18;2.17;;;0.90;;
19605;SDS011;9950;50.168;8.210;2024-02-23T11:19:49;5.93;;;1.10;;
19605;SDS011;9950;50.168;8.210;2024-02-23T11:22:24;3.30;;;1.00;;
19605;SDS011;9950;50.168;8.210;2024-02-23T11:24:52;3.45;;;1.00;;
19605;SDS011;9950;50.168;8.210;2024-02-23T11:27:21;4.97;;;1.30;;
19605;SDS011;9950;50.168;8.210;2024-02-23T11:29:58;3.20;;;0.95;;
19605;SDS011;9950;50.168;8.210;2024-02-23T11:32:34;4.90;;;1.23;;
19605;SDS011;9950;50.168;8.210;2024-02-23T11:35:03;4.28;;;1.30;;
19605;SDS011;9950;50.168;8.210;2024-02-23T11:37:32;6.05;;;1.42;;
19605;SDS011;9950;50.168;8.210;2024-02-23T11:40:00;5.65;;;1.45;;
19605;SDS011;9950;50.168;8.210;2024-02-23T11:42:30;6.13;;;1.10;;
19605;SDS011;9950;50.168;8.210;2024-02-23T11:44:58;4.60;;;1.30;;
19605;SDS011;9950;50.168;8.210;2024-02-23T11:47:25;4.85;;;1.05;;
19605;SDS011;9950;50.168;8.210;2024-02-23T11:49:52;4.88;;;0.77;;
19605;SDS011;9950;50.168;8.210;2024-02-23T11:52:21;4.45;;;0.98;;
19605;SDS011;9950;50.168;8.210;2024-02-23T11:54:48;7.07;;;1.15;;
19605;SDS011;9950;50.168;8.210;2024-02-23T11:57:15;2.45;;;0.82;;
19605;SDS011;9950;50.168;8.210;2024-02-23T11:59:43;3.20;;;1.00;;
19605;SDS011;9950;50.168;8.210;2024-02-23T12:02:10;3.65;;;0.90;;
19605;SDS011;9950;50.168;8.210;2024-02-23T12:04:39;3.70;;;0.85;;
19605;SDS011;9950;50.168;8.210;2024-02-23T12:07:06;4.55;;;1.00;;
19605;SDS011;9950;50.168;8.210;2024-02-23T12:09:35;2.10;;;0.90;;
19605;SDS011;9950;50.168;8.210;2024-02-23T12:12:02;2.25;;;0.85;;
19605;SDS011;9950;50.168;8.210;2024-02-23T12:14:29;3.25;;;1.10;;
19605;SDS011;9950;50.168;8.210;2024-02-23T12:16:57;3.97;;;0.80;;
19605;SDS011;9950;50.168;8.210;2024-02-23T12:19:25;4.30;;;0.98;;
19605;SDS011;9950;50.168;8.210;2024-02-23T12:21:52;3.75;;;0.85;;
19605;SDS011;9950;50.168;8.210;2024-02-23T12:24:19;4.38;;;0.88;;
19605;SDS011;9950;50.168;8.210;2024-02-23T12:26:54;2.75;;;1.30;;
19605;SDS011;9950;50.168;8.210;2024-02-23T12:29:21;2.80;;;0.80;;
19605;SDS011;9950;50.168;8.210;2024-02-23T12:31:48;1.63;;;0.73;;
19605;SDS011;9950;50.168;8.210;2024-02-23T12:34:16;2.15;;;0.77;;
19605;SDS011;9950;50.168;8.210;2024-02-23T12:36:45;1.83;;;0.70;;
19605;SDS011;9950;50.168;8.210;2024-02-23T12:39:13;3.67;;;1.90;;
19605;SDS011;9950;50.168;8.210;2024-02-23T12:41:40;3.70;;;0.70;;
19605;SDS011;9950;50.168;8.210;2024-02-23T12:44:09;4.38;;;1.00;;
19605;SDS011;9950;50.168;8.210;2024-02-23T12:46:36;1.73;;;0.70;;
19605;SDS011;9950;50.168;8.210;2024-02-23T12:49:03;4.80;;;1.00;;
19605;SDS011;9950;50.168;8.210;2024-02-23T12:51:30;5.75;;;1.10;;
19605;SDS011;9950;50.168;8.210;2024-02-23T12:53:57;2.72;;;0.82;;
19605;SDS011;9950;50.168;8.210;2024-02-23T12:56:24;2.90;;;0.82;;
19605;SDS011;9950;50.168;8.210;2024-02-23T12:58:51;4.15;;;1.00;;
19605;SDS011;9950;50.168;8.210;2024-02-23T13:01:20;6.22;;;0.90;;
19605;SDS011;9950;50.168;8.210;2024-02-23T13:03:47;4.93;;;0.75;;
19605;SDS011;9950;50.168;8.210;2024-02-23T13:06:15;2.72;;;1.02;;
19605;SDS011;9950;50.168;8.210;2024-02-23T13:08:42;4.18;;;1.35;;
19605;SDS011;9950;50.168;8.210;2024-02-23T13:11:09;2.35;;;0.90;;
19605;SDS011;9950;50.168;8.210;2024-02-23T13:13:36;4.45;;;1.23;;
19605;SDS011;9950;50.168;8.210;2024-02-23T13:16:03;3.78;;;1.30;;
19605;SDS011;9950;50.168;8.210;2024-02-23T13:18:32;4.93;;;1.73;;
19605;SDS011;9950;50.168;8.210;2024-02-23T13:21:00;4.97;;;1.30;;
19605;SDS011;9950;50.168;8.210;2024-02-23T13:23:28;5.13;;;1.10;;
19605;SDS011;9950;50.168;8.210;2024-02-23T13:25:55;4.53;;;1.73;;
19605;SDS011;9950;50.168;8.210;2024-02-23T13:28:23;4.50;;;1.10;;
19605;SDS011;9950;50.168;8.210;2024-02-23T13:30:50;4.75;;;1.20;;
19605;SDS011;9950;50.168;8.210;2024-02-23T13:33:17;4.13;;;0.90;;
19605;SDS011;9950;50.168;8.210;2024-02-23T13:35:47;4.22;;;1.10;;
19605;SDS011;9950;50.168;8.210;2024-02-23T13:38:14;4.72;;;1.25;;
19605;SDS011;9950;50.168;8.210;2024-02-23T13:40:42;4.65;;;1.20;;
19605;SDS011;9950;50.168;8.210;2024-02-23T13:43:09;11.32;;;1.27;;
19605;SDS011;9950;50.168;8.210;2024-02-23T13:45:47;2.80;;;0.98;;
19605;SDS011;9950;50.168;8.210;2024-02-23T13:48:14;4.13;;;1.20;;
19605;SDS011;9950;50.168;8.210;2024-02-23T13:50:43;3.33;;;1.05;;
19605;SDS011;9950;50.168;8.210;2024-02-23T13:53:12;4.53;;;1.25;;
19605;SDS011;9950;50.168;8.210;2024-02-23T13:55:39;5.18;;;1.02;;
19605;SDS011;9950;50.168;8.210;2024-02-23T13:58:07;3.60;;;0.80;;
19605;SDS011;9950;50.168;8.210;2024-02-23T14:00:34;2.60;;;0.95;;
19605;SDS011;9950;50.168;8.210;2024-02-23T14:03:02;5.57;;;0.82;;
19605;SDS011;9950;50.168;8.210;2024-02-23T14:05:30;2.35;;;1.00;;
19605;SDS011;9950;50.168;8.210;2024-02-23T14:07:57;5.10;;;1.27;;
19605;SDS011;9950;50.168;8.210;2024-02-23T14:10:26;3.00;;;0.73;;
19605;SDS011;9950;50.168;8.210;2024-02-23T14:12:53;4.00;;;0.93;;
19605;SDS011;9950;50.168;8.210;2024-02-23T14:15:21;4.72;;;1.30;;
19605;SDS011;9950;50.168;8.210;2024-02-23T14:17:48;6.75;;;1.02;;
19605;SDS011;9950;50.168;8.210;2024-02-23T14:20:15;4.20;;;0.90;;
19605;SDS011;9950;50.168;8.210;2024-02-23T14:22:43;3.58;;;1.13;;
19605;SDS011;9950;50.168;8.210;2024-02-23T14:25:10;6.05;;;1.20;;
19605;SDS011;9950;50.168;8.210;2024-02-23T14:27:38;2.58;;;1.25;;
19605;SDS011;9950;50.168;8.210;2024-02-23T14:30:06;3.83;;;0.88;;
19605;SDS011;9950;50.168;8.210;2024-02-23T14:32:34;1.48;;;0.68;;
19605;SDS011;9950;50.168;8.210;2024-02-23T14:35:01;3.60;;;1.15;;
19605;SDS011;9950;50.168;8.210;2024-02-23T14:37:29;5.38;;;1.20;;
19605;SDS011;9950;50.168;8.210;2024-02-23T14:39:56;3.83;;;0.80;;
19605;SDS011;9950;50.168;8.210;2024-02-23T14:42:23;3.65;;;1.00;;
19605;SDS011;9950;50.168;8.210;2024-02-23T14:44:52;2.10;;;0.95;;
19605;SDS011;9950;50.168;8.210;2024-02-23T14:47:19;2.92;;;0.95;;
19605;SDS011;9950;50.168;8.210;2024-02-23T14:49:46;2.97;;;0.98;;
19605;SDS011;9950;50.168;8.210;2024-02-23T14:52:15;3.67;;;0.70;;
19605;SDS011;9950;50.168;8.210;2024-02-23T14:54:42;2.97;;;0.70;;
19605;SDS011;9950;50.168;8.210;2024-02-23T14:57:10;4.13;;;0.70;;
19605;SDS011;9950;50.168;8.210;2024-02-23T14:59:37;2.38;;;0.70;;
19605;SDS011;9950;50.168;8.210;2024-02-23T15:02:12;4.35;;;0.73;;
19605;SDS011;9950;50.168;8.210;2024-02-23T15:04:45;1.95;;;0.77;;